Terminal Aerodrome Forecast
Issued by NWS Riverton, WY

Home | Current Version | Previous Version | Text Only | Print | Product List | Glossary On
Versions: 1 2 3 4 5 6 7 8 9 10 11 12 13 14 15 16 17
603
FTUS45 KRIW 010532
TAFRIW
TAF
KRIW 010532Z 0106/0206 31011KT P6SM VCSH SCT070 BKN100
     FM011300 36008KT P6SM VCSH BKN060
     FM011800 36006KT P6SM SCT060 SCT100
     FM020200 31009KT P6SM SCT080 BKN110=

USA.gov is the U.S. government's official web portal to all federal, state and local government web resources and services.